Time;durP1;ratioP1;P1;durP2;ratioP2;P2;SDS_P1;SDS_P2;PMS_P1;PMS_P2;Temp;Humidity;BMP_temperature;BMP_pressure;BME280_temperature;BME280_humidity;BME280_pressure;Samples;Min_cycle;Max_cycle;Signal;HPM_P1;HPM_P2
2024/04/18 00:01:19;;;;;;;50.85;29.13;;;;;;;;;;5465297;26;20044;-39
2024/04/18 00:03:46;;;;;;;40.58;31.88;;;;;;;;;;5465509;26;20002;-40
2024/04/18 00:06:12;;;;;;;40.10;31.83;;;;;;;;;;5465133;26;20048;-40
2024/04/18 00:08:39;;;;;;;50.72;37.65;;;;;;;;;;5465357;26;20048;-40
2024/04/18 00:11:06;;;;;;;72.15;38.40;;;;;;;;;;5465146;26;19994;-41
2024/04/18 00:13:32;;;;;;;45.53;32.78;;;;;;;;;;5465145;26;19991;-41
2024/04/18 00:15:59;;;;;;;41.28;31.35;;;;;;;;;;5464792;26;19990;-44
2024/04/18 00:18:26;;;;;;;42.95;32.15;;;;;;;;;;5465320;26;20044;-45
2024/04/18 00:20:52;;;;;;;43.97;32.03;;;;;;;;;;5464678;26;20011;-44
2024/04/18 00:23:19;;;;;;;44.67;31.92;;;;;;;;;;5464996;26;19991;-41
2024/04/18 00:25:45;;;;;;;37.75;31.27;;;;;;;;;;5465039;26;19987;-44
2024/04/18 00:28:12;;;;;;;39.22;30.48;;;;;;;;;;5465932;26;20211;-45
2024/04/18 00:30:39;;;;;;;100.00;35.70;;;;;;;;;;5455318;26;20043;-45
2024/04/18 00:33:06;;;;;;;63.42;32.05;;;;;;;;;;5418856;26;19996;-40
2024/04/18 00:35:32;;;;;;;66.78;32.40;;;;;;;;;;5431744;26;20000;-39
2024/04/18 00:37:59;;;;;;;55.28;30.70;;;;;;;;;;5432018;26;20062;-43
2024/04/18 00:40:26;;;;;;;50.05;31.25;;;;;;;;;;5432097;26;20065;-42
2024/04/18 00:42:52;;;;;;;47.13;30.00;;;;;;;;;;5441501;26;19997;-44
2024/04/18 00:45:19;;;;;;;56.80;32.17;;;;;;;;;;5434228;26;20019;-42
2024/04/18 00:47:47;;;;;;;56.58;29.15;;;;;;;;;;5431807;26;20052;-50
2024/04/18 00:50:14;;;;;;;41.25;25.23;;;;;;;;;;5432336;26;19983;-42
2024/04/18 00:52:41;;;;;;;41.63;26.20;;;;;;;;;;5431204;26;20199;-38
2024/04/18 00:55:08;;;;;;;49.88;26.10;;;;;;;;;;5445339;26;19991;-44
2024/04/18 00:57:35;;;;;;;45.10;24.60;;;;;;;;;;5432151;26;19983;-44
2024/04/18 01:00:02;;;;;;;50.42;25.77;;;;;;;;;;5429426;26;19995;-42
2024/04/18 01:02:30;;;;;;;57.03;27.08;;;;;;;;;;5431232;26;20003;-39
2024/04/18 01:04:58;;;;;;;69.13;27.75;;;;;;;;;;5448556;26;20006;-50
2024/04/18 01:07:25;;;;;;;78.40;27.95;;;;;;;;;;5440899;26;20060;-46
2024/04/18 01:09:52;;;;;;;83.70;28.25;;;;;;;;;;5431541;26;20002;-45
2024/04/18 01:12:18;;;;;;;54.05;25.70;;;;;;;;;;5428254;26;20010;-41
2024/04/18 01:14:45;;;;;;;38.50;24.92;;;;;;;;;;5435440;26;19995;-42
2024/04/18 01:17:11;;;;;;;36.15;24.50;;;;;;;;;;5431830;26;19991;-51
2024/04/18 01:19:39;;;;;;;42.00;25.30;;;;;;;;;;5421986;26;20045;-47
2024/04/18 01:22:05;;;;;;;28.95;23.20;;;;;;;;;;5450835;26;19995;-39
2024/04/18 01:24:32;;;;;;;27.13;23.15;;;;;;;;;;5429476;26;19995;-41
2024/04/18 01:26:59;;;;;;;25.63;23.00;;;;;;;;;;5467885;26;20165;-39
2024/04/18 01:29:26;;;;;;;27.58;24.40;;;;;;;;;;5435984;26;19988;-47
2024/04/18 01:31:53;;;;;;;25.40;22.58;;;;;;;;;;5431874;26;19995;-42
2024/04/18 01:34:20;;;;;;;25.95;22.73;;;;;;;;;;5429392;26;20003;-42
2024/04/18 01:36:46;;;;;;;28.60;23.92;;;;;;;;;;5413244;26;20042;-51
2024/04/18 01:39:13;;;;;;;25.45;22.85;;;;;;;;;;5395504;26;19984;-44
2024/04/18 01:41:39;;;;;;;24.98;22.33;;;;;;;;;;5395038;26;19999;-47
2024/04/18 01:44:06;;;;;;;25.17;22.77;;;;;;;;;;5395567;26;20003;-45
2024/04/18 01:46:33;;;;;;;24.13;21.73;;;;;;;;;;5395375;26;19988;-44
2024/04/18 01:49:00;;;;;;;24.85;22.35;;;;;;;;;;5396619;26;20212;-43
2024/04/18 01:51:26;;;;;;;24.88;22.20;;;;;;;;;;5416941;26;20010;-45
2024/04/18 01:53:53;;;;;;;28.67;22.02;;;;;;;;;;5416401;26;20008;-44
2024/04/18 01:56:19;;;;;;;24.92;22.20;;;;;;;;;;5413610;26;19992;-48
2024/04/18 01:58:46;;;;;;;22.52;20.17;;;;;;;;;;5395640;26;20079;-47
2024/04/18 02:01:13;;;;;;;21.35;19.25;;;;;;;;;;5408935;26;19995;-47
2024/04/18 02:03:39;;;;;;;21.42;19.25;;;;;;;;;;5401849;26;19990;-45
2024/04/18 02:06:06;;;;;;;22.88;18.60;;;;;;;;;;5395464;26;20002;-51
2024/04/18 02:08:32;;;;;;;19.52;17.55;;;;;;;;;;5396017;26;19992;-41
2024/04/18 02:10:59;;;;;;;19.33;17.48;;;;;;;;;;5395735;26;19992;-41
2024/04/18 02:13:26;;;;;;;18.73;16.83;;;;;;;;;;5395678;26;20016;-45
2024/04/18 02:15:53;;;;;;;19.00;16.02;;;;;;;;;;5395715;26;19992;-49
2024/04/18 02:18:19;;;;;;;19.60;17.48;;;;;;;;;;5395799;26;19984;-39
2024/04/18 02:20:46;;;;;;;20.00;17.80;;;;;;;;;;5399063;26;20054;-41
2024/04/18 02:23:12;;;;;;;20.08;17.98;;;;;;;;;;5415909;26;20189;-45
2024/04/18 02:25:39;;;;;;;19.88;17.90;;;;;;;;;;5414459;26;20246;-39
2024/04/18 02:28:05;;;;;;;19.75;17.70;;;;;;;;;;5401627;26;20204;-39
2024/04/18 02:30:32;;;;;;;19.92;17.92;;;;;;;;;;5395470;26;19988;-42
2024/04/18 02:32:59;;;;;;;22.10;19.83;;;;;;;;;;5395771;26;20014;-40
2024/04/18 02:35:25;;;;;;;22.92;20.50;;;;;;;;;;5395584;26;20003;-40
2024/04/18 02:37:52;;;;;;;23.25;21.05;;;;;;;;;;5395154;26;19984;-41
2024/04/18 02:40:18;;;;;;;22.45;20.45;;;;;;;;;;5395246;26;19992;-40
2024/04/18 02:42:45;;;;;;;24.40;20.92;;;;;;;;;;5395392;26;19984;-39
2024/04/18 02:45:11;;;;;;;23.90;21.63;;;;;;;;;;5395231;26;19985;-42
2024/04/18 02:47:38;;;;;;;24.05;21.58;;;;;;;;;;5395380;26;19992;-44
2024/04/18 02:50:06;;;;;;;24.75;22.17;;;;;;;;;;5395369;26;19995;-40
2024/04/18 02:52:33;;;;;;;23.58;21.33;;;;;;;;;;5407950;26;20052;-43
2024/04/18 02:54:59;;;;;;;25.88;23.27;;;;;;;;;;5400071;26;19996;-40
2024/04/18 02:57:26;;;;;;;26.35;23.65;;;;;;;;;;5395076;26;19999;-41
2024/04/18 02:59:53;;;;;;;26.33;23.67;;;;;;;;;;5364955;26;20126;-40
2024/04/18 03:02:19;;;;;;;25.73;23.33;;;;;;;;;;5395055;26;19989;-40
2024/04/18 03:04:46;;;;;;;27.20;24.60;;;;;;;;;;5416656;26;19999;-43
2024/04/18 03:07:12;;;;;;;26.08;23.60;;;;;;;;;;5394813;26;20000;-44
2024/04/18 03:09:39;;;;;;;30.08;23.98;;;;;;;;;;5414626;26;19984;-46
2024/04/18 03:12:06;;;;;;;27.50;24.60;;;;;;;;;;5395112;26;20050;-47
2024/04/18 03:14:32;;;;;;;26.35;23.70;;;;;;;;;;5364941;26;19984;-42
2024/04/18 03:16:59;;;;;;;25.73;23.33;;;;;;;;;;5394937;26;20046;-45
2024/04/18 03:19:25;;;;;;;26.58;23.83;;;;;;;;;;5394877;26;20090;-41
2024/04/18 03:21:52;;;;;;;26.55;23.67;;;;;;;;;;5394435;26;20024;-43
2024/04/18 03:24:23;;;;;;;24.85;22.20;;;;;;;;;;5394571;26;19985;-47
2024/04/18 03:26:50;;;;;;;25.55;23.15;;;;;;;;;;5394725;26;19992;-41
2024/04/18 03:29:16;;;;;;;26.35;23.58;;;;;;;;;;5394601;26;19994;-40
2024/04/18 03:31:43;;;;;;;25.45;22.92;;;;;;;;;;5399677;26;20000;-43
2024/04/18 03:34:10;;;;;;;27.08;24.38;;;;;;;;;;5409063;26;19984;-44
2024/04/18 03:36:41;;;;;;;29.30;26.25;;;;;;;;;;5393799;26;19992;-51
2024/04/18 03:39:11;;;;;;;31.38;28.00;;;;;;;;;;5394448;26;19999;-50
2024/04/18 03:41:41;;;;;;;31.15;27.77;;;;;;;;;;5405472;26;19992;-50
2024/04/18 03:44:10;;;;;;;32.45;29.33;;;;;;;;;;5429753;26;20042;-46
2024/04/18 03:46:37;;;;;;;31.35;28.45;;;;;;;;;;5418633;26;20069;-49
2024/04/18 03:49:04;;;;;;;31.50;28.60;;;;;;;;;;5403161;26;19999;-50
2024/04/18 03:51:30;;;;;;;32.30;29.30;;;;;;;;;;5394161;26;19996;-47
2024/04/18 03:53:57;;;;;;;33.08;29.50;;;;;;;;;;5394216;26;19988;-50
2024/04/18 03:56:24;;;;;;;35.10;29.35;;;;;;;;;;5393779;26;20075;-42
2024/04/18 03:58:52;;;;;;;33.28;28.85;;;;;;;;;;5396004;26;20136;-43
2024/04/18 04:01:19;;;;;;;32.20;28.70;;;;;;;;;;5411819;26;19992;-42
2024/04/18 04:03:45;;;;;;;32.53;29.13;;;;;;;;;;5395700;26;20030;-40
2024/04/18 04:06:12;;;;;;;32.92;28.42;;;;;;;;;;5397125;26;19996;-44
2024/04/18 04:08:38;;;;;;;32.47;29.20;;;;;;;;;;5397436;26;19988;-43
2024/04/18 04:11:05;;;;;;;32.78;29.40;;;;;;;;;;5396978;26;19995;-47
2024/04/18 04:13:32;;;;;;;32.63;29.20;;;;;;;;;;5397587;26;19989;-43
2024/04/18 04:15:58;;;;;;;32.17;28.77;;;;;;;;;;5397173;26;19996;-42
2024/04/18 04:18:27;;;;;;;32.28;29.17;;;;;;;;;;5397231;26;20046;-43
2024/04/18 04:20:53;;;;;;;32.40;29.13;;;;;;;;;;5396659;26;20217;-43
2024/04/18 04:23:20;;;;;;;31.30;28.13;;;;;;;;;;5403219;26;20096;-46
2024/04/18 04:25:46;;;;;;;31.98;28.85;;;;;;;;;;5463986;26;19994;-44
2024/04/18 04:28:13;;;;;;;30.92;27.92;;;;;;;;;;5468896;26;20102;-41
2024/04/18 04:30:39;;;;;;;31.20;28.10;;;;;;;;;;5468726;26;20012;-50
2024/04/18 04:33:06;;;;;;;31.25;28.15;;;;;;;;;;5456639;26;20122;-39
2024/04/18 04:35:33;;;;;;;31.60;28.50;;;;;;;;;;5439177;26;20115;-40
2024/04/18 04:37:59;;;;;;;31.90;28.85;;;;;;;;;;5421797;26;20014;-46
2024/04/18 04:40:26;;;;;;;30.42;27.42;;;;;;;;;;5432705;26;19996;-40
2024/04/18 04:42:52;;;;;;;31.38;28.25;;;;;;;;;;5432223;26;20109;-49
2024/04/18 04:45:19;;;;;;;30.17;27.10;;;;;;;;;;5432616;26;20204;-40
2024/04/18 04:47:45;;;;;;;30.70;27.85;;;;;;;;;;5430691;26;20250;-46
2024/04/18 04:50:12;;;;;;;29.60;26.73;;;;;;;;;;5432626;26;20081;-45
2024/04/18 04:52:38;;;;;;;31.08;28.17;;;;;;;;;;5432299;26;20010;-47
2024/04/18 04:55:05;;;;;;;30.40;27.45;;;;;;;;;;5432207;26;19995;-44
2024/04/18 04:57:32;;;;;;;31.50;28.60;;;;;;;;;;5431892;26;19992;-39
2024/04/18 04:59:58;;;;;;;31.92;28.83;;;;;;;;;;5432166;26;19990;-39
2024/04/18 05:02:25;;;;;;;32.35;29.13;;;;;;;;;;5432149;26;19994;-39
2024/04/18 05:04:51;;;;;;;32.28;29.10;;;;;;;;;;5432163;26;19984;-45
2024/04/18 05:07:18;;;;;;;31.08;27.83;;;;;;;;;;5431663;26;19991;-43
2024/04/18 05:09:45;;;;;;;31.45;28.35;;;;;;;;;;5431276;26;20452;-42
2024/04/18 05:12:12;;;;;;;30.83;27.83;;;;;;;;;;5431861;26;20001;-42
2024/04/18 05:14:38;;;;;;;32.63;29.58;;;;;;;;;;5430995;26;19984;-43
2024/04/18 05:17:05;;;;;;;33.20;30.13;;;;;;;;;;5432282;26;19999;-44
2024/04/18 05:19:32;;;;;;;34.38;31.17;;;;;;;;;;5431846;26;20105;-49
2024/04/18 05:21:58;;;;;;;36.45;31.27;;;;;;;;;;5431905;26;20095;-45
2024/04/18 05:24:25;;;;;;;35.97;32.67;;;;;;;;;;5431888;26;20097;-45
2024/04/18 05:26:51;;;;;;;35.88;32.40;;;;;;;;;;5431819;26;20000;-42
2024/04/18 05:32:04;;;;;;;38.38;34.50;;;;;;;;;;5432502;26;20017;-43
2024/04/18 05:34:30;;;;;;;38.80;35.17;;;;;;;;;;5431755;26;19994;-44
2024/04/18 05:36:57;;;;;;;39.05;35.50;;;;;;;;;;5431428;26;19991;-44
2024/04/18 05:39:24;;;;;;;38.75;35.15;;;;;;;;;;5431611;26;20014;-44
2024/04/18 05:41:50;;;;;;;40.15;36.30;;;;;;;;;;5431413;26;20041;-45
2024/04/18 05:44:17;;;;;;;40.35;36.55;;;;;;;;;;5431722;26;20049;-43
2024/04/18 05:46:43;;;;;;;39.88;36.17;;;;;;;;;;5431770;26;19998;-42
2024/04/18 05:49:10;;;;;;;40.97;37.03;;;;;;;;;;5431590;26;20007;-47
2024/04/18 05:51:36;;;;;;;36.83;33.25;;;;;;;;;;5431675;26;20016;-43
2024/04/18 05:54:03;;;;;;;30.73;27.83;;;;;;;;;;5431707;26;19995;-42
2024/04/18 05:56:29;;;;;;;26.25;23.90;;;;;;;;;;5431419;26;19992;-45
2024/04/18 05:58:56;;;;;;;22.00;19.80;;;;;;;;;;5431193;26;20313;-42
2024/04/18 06:01:22;;;;;;;18.75;17.00;;;;;;;;;;5431236;26;20016;-44
2024/04/18 06:03:49;;;;;;;17.35;15.65;;;;;;;;;;5431431;26;20013;-39
2024/04/18 06:06:16;;;;;;;14.90;13.50;;;;;;;;;;5423401;26;19996;-43
2024/04/18 06:08:42;;;;;;;14.65;13.30;;;;;;;;;;5412173;26;19988;-40
2024/04/18 06:11:09;;;;;;;13.93;12.57;;;;;;;;;;5395790;26;19990;-43
2024/04/18 06:13:38;;;;;;;13.20;11.98;;;;;;;;;;5395637;26;20208;-44
2024/04/18 06:16:05;;;;;;;11.68;10.60;;;;;;;;;;5395775;26;20017;-43
2024/04/18 06:18:32;;;;;;;11.07;9.98;;;;;;;;;;5395810;26;19988;-48
2024/04/18 06:21:01;;;;;;;11.30;10.20;;;;;;;;;;5395326;26;19999;-38
2024/04/18 06:23:27;;;;;;;10.90;9.98;;;;;;;;;;5395760;26;20004;-43
2024/04/18 06:25:55;;;;;;;10.00;9.13;;;;;;;;;;5395427;26;19992;-47
2024/04/18 06:28:23;;;;;;;11.05;9.95;;;;;;;;;;5395844;26;19993;-46
2024/04/18 06:30:49;;;;;;;10.30;9.30;;;;;;;;;;5395545;26;19995;-44
2024/04/18 06:33:16;;;;;;;9.85;8.98;;;;;;;;;;5395828;26;19984;-42
2024/04/18 06:35:43;;;;;;;10.45;9.45;;;;;;;;;;5395144;26;19988;-41
2024/04/18 06:38:09;;;;;;;12.15;8.95;;;;;;;;;;5395488;26;19988;-43
2024/04/18 06:40:36;;;;;;;9.90;8.90;;;;;;;;;;5395304;26;20206;-43
2024/04/18 06:43:03;;;;;;;17.65;9.77;;;;;;;;;;5395244;26;20128;-43
2024/04/18 06:45:29;;;;;;;24.33;10.57;;;;;;;;;;5395439;26;19988;-46
2024/04/18 06:47:56;;;;;;;19.00;10.05;;;;;;;;;;5395320;26;19980;-43
2024/04/18 06:50:22;;;;;;;21.05;7.72;;;;;;;;;;5395192;26;19992;-42
2024/04/18 06:52:49;;;;;;;13.50;5.88;;;;;;;;;;5395262;26;19996;-44
2024/04/18 06:55:15;;;;;;;10.90;4.32;;;;;;;;;;5395200;26;20007;-42
2024/04/18 06:57:42;;;;;;;10.02;3.90;;;;;;;;;;5395031;26;20055;-50
2024/04/18 07:00:10;;;;;;;5.30;2.90;;;;;;;;;;5395355;26;19998;-50
2024/04/18 07:02:37;;;;;;;5.68;2.20;;;;;;;;;;5395176;26;19988;-46
2024/04/18 07:05:04;;;;;;;10.02;2.33;;;;;;;;;;5394670;26;20094;-43
2024/04/18 07:07:31;;;;;;;9.73;2.20;;;;;;;;;;5394805;26;19995;-48
2024/04/18 07:09:57;;;;;;;5.80;1.88;;;;;;;;;;5394835;26;19992;-39
2024/04/18 07:12:24;;;;;;;7.90;1.88;;;;;;;;;;5394465;26;19999;-41
2024/04/18 07:14:50;;;;;;;4.50;1.98;;;;;;;;;;5394876;26;19999;-41
2024/04/18 07:17:17;;;;;;;4.75;1.75;;;;;;;;;;5395001;26;20066;-48
2024/04/18 07:19:43;;;;;;;5.13;1.75;;;;;;;;;;5394854;26;20004;-45
2024/04/18 07:22:10;;;;;;;4.85;1.73;;;;;;;;;;5394575;26;19984;-44
2024/04/18 07:24:37;;;;;;;2.78;1.40;;;;;;;;;;5394807;26;19996;-41
2024/04/18 07:27:04;;;;;;;3.85;1.80;;;;;;;;;;5394352;26;19984;-41
2024/04/18 07:29:31;;;;;;;3.22;1.75;;;;;;;;;;5394755;26;19988;-40
2024/04/18 07:31:57;;;;;;;1.67;1.30;;;;;;;;;;5394657;26;20012;-41
2024/04/18 07:34:25;;;;;;;2.83;1.55;;;;;;;;;;5394611;26;20032;-50
2024/04/18 07:36:51;;;;;;;2.55;1.73;;;;;;;;;;5394440;26;20151;-44
2024/04/18 07:39:18;;;;;;;2.20;1.75;;;;;;;;;;5396750;26;20097;-44
2024/04/18 07:41:45;;;;;;;3.65;1.67;;;;;;;;;;5397808;26;20019;-43
2024/04/18 07:44:11;;;;;;;3.83;1.85;;;;;;;;;;5397755;26;19994;-46
2024/04/18 07:46:39;;;;;;;5.38;1.52;;;;;;;;;;5397653;26;19996;-41
2024/04/18 07:49:07;;;;;;;2.53;1.42;;;;;;;;;;5398203;26;20210;-45
2024/04/18 07:51:33;;;;;;;3.83;1.77;;;;;;;;;;5397563;26;19992;-40
2024/04/18 07:54:00;;;;;;;1.90;1.50;;;;;;;;;;5398101;26;19999;-45
2024/04/18 07:56:27;;;;;;;2.88;1.52;;;;;;;;;;5397592;26;20020;-45
2024/04/18 07:58:53;;;;;;;3.05;1.60;;;;;;;;;;5397513;26;20009;-43
2024/04/18 08:01:20;;;;;;;2.22;1.40;;;;;;;;;;5397577;26;19999;-45
2024/04/18 08:03:46;;;;;;;2.10;1.20;;;;;;;;;;5397637;26;19992;-46
2024/04/18 08:06:13;;;;;;;1.65;1.30;;;;;;;;;;5398105;26;20062;-48
2024/04/18 08:08:40;;;;;;;2.65;1.50;;;;;;;;;;5415963;26;20090;-40
2024/04/18 08:11:09;;;;;;;1.92;1.17;;;;;;;;;;5397712;26;19999;-40
2024/04/18 08:13:38;;;;;;;2.13;1.48;;;;;;;;;;5397261;26;19995;-47
2024/04/18 08:16:05;;;;;;;2.60;1.83;;;;;;;;;;5397449;26;20012;-51
2024/04/18 08:18:33;;;;;;;2.80;1.67;;;;;;;;;;5397781;26;19999;-43
2024/04/18 08:20:59;;;;;;;3.05;1.95;;;;;;;;;;5397211;26;20016;-44
2024/04/18 08:23:26;;;;;;;4.30;2.20;;;;;;;;;;5397237;26;20259;-48
2024/04/18 08:25:53;;;;;;;2.90;2.28;;;;;;;;;;5397318;26;19988;-42
2024/04/18 08:28:20;;;;;;;4.97;2.70;;;;;;;;;;5397130;26;19996;-49
2024/04/18 08:30:46;;;;;;;3.83;2.85;;;;;;;;;;5397122;26;20030;-52
2024/04/18 08:33:13;;;;;;;4.60;3.30;;;;;;;;;;5397155;26;19995;-50
2024/04/18 08:35:39;;;;;;;4.18;3.05;;;;;;;;;;5396915;26;19992;-46
2024/04/18 08:38:08;;;;;;;4.13;2.90;;;;;;;;;;5397004;26;19992;-43
2024/04/18 08:40:34;;;;;;;4.72;2.95;;;;;;;;;;5397021;26;19992;-47
2024/04/18 08:43:01;;;;;;;5.63;3.30;;;;;;;;;;5396763;26;20101;-48
2024/04/18 08:45:33;;;;;;;4.57;3.40;;;;;;;;;;5397096;26;19996;-42
2024/04/18 08:48:00;;;;;;;;;;;;;;;;;;5397618;26;19992;-42
2024/04/18 08:50:27;;;;;;;4.32;3.88;;;;;;;;;;5395536;26;19921;-47
2024/04/18 08:52:55;;;;;;;4.25;3.85;;;;;;;;;;5396814;26;19988;-47
2024/04/18 08:55:22;;;;;;;5.03;4.32;;;;;;;;;;5396847;26;20003;-47
2024/04/18 08:57:55;;;;;;;4.75;4.20;;;;;;;;;;5396528;26;19992;-44
2024/04/18 09:00:22;;;;;;;6.50;4.50;;;;;;;;;;5396386;26;19988;-43
2024/04/18 09:02:49;;;;;;;5.78;4.25;;;;;;;;;;5396466;26;19989;-45
2024/04/18 09:05:16;;;;;;;5.13;4.15;;;;;;;;;;5396848;26;19991;-43
2024/04/18 09:07:42;;;;;;;4.90;4.15;;;;;;;;;;5396771;26;19999;-42
2024/04/18 09:10:09;;;;;;;6.10;4.55;;;;;;;;;;5396794;26;19993;-44
2024/04/18 09:12:36;;;;;;;5.45;4.28;;;;;;;;;;5396500;26;19988;-43
2024/04/18 09:15:03;;;;;;;5.90;4.65;;;;;;;;;;5396735;26;19984;-42
2024/04/18 09:17:30;;;;;;;7.18;4.80;;;;;;;;;;5396494;26;20201;-47
2024/04/18 09:19:56;;;;;;;5.47;4.13;;;;;;;;;;5396219;26;20299;-45
2024/04/18 09:22:23;;;;;;;4.78;4.38;;;;;;;;;;5396591;26;20181;-44
2024/04/18 09:24:50;;;;;;;5.63;4.72;;;;;;;;;;5396525;26;20009;-50
2024/04/18 09:27:16;;;;;;;5.50;5.00;;;;;;;;;;5396148;26;19988;-41
2024/04/18 09:29:44;;;;;;;5.47;4.97;;;;;;;;;;5396349;26;19988;-46
2024/04/18 09:32:14;;;;;;;5.72;4.55;;;;;;;;;;5396236;26;20050;-43
2024/04/18 09:34:43;;;;;;;6.30;4.65;;;;;;;;;;5396428;26;20129;-45
2024/04/18 09:37:15;;;;;;;5.50;4.40;;;;;;;;;;5396231;26;19999;-47
2024/04/18 09:39:44;;;;;;;5.13;4.40;;;;;;;;;;5395869;26;20122;-44
2024/04/18 09:42:19;;;;;;;7.70;5.00;;;;;;;;;;5396129;26;19989;-42
2024/04/18 09:44:50;;;;;;;4.82;4.28;;;;;;;;;;5396318;26;19991;-44
2024/04/18 09:47:17;;;;;;;4.72;4.20;;;;;;;;;;5395855;26;20000;-43
2024/04/18 09:49:44;;;;;;;4.78;4.30;;;;;;;;;;5396512;26;19994;-47
2024/04/18 09:52:12;;;;;;;5.35;4.85;;;;;;;;;;5395798;26;19988;-44
2024/04/18 09:54:40;;;;;;;5.47;4.30;;;;;;;;;;5395968;26;19991;-48
2024/04/18 09:57:07;;;;;;;7.03;4.35;;;;;;;;;;5395719;26;19992;-45
2024/04/18 09:59:34;;;;;;;5.38;4.28;;;;;;;;;;5396067;26;20000;-44
2024/04/18 10:02:01;;;;;;;6.60;4.90;;;;;;;;;;5395159;26;20007;-42
2024/04/18 10:04:28;;;;;;;6.47;4.82;;;;;;;;;;5395909;26;20078;-46
2024/04/18 10:06:55;;;;;;;5.22;4.72;;;;;;;;;;5395890;26;19992;-45
2024/04/18 10:09:23;;;;;;;6.63;4.90;;;;;;;;;;5395768;26;20205;-42
2024/04/18 10:11:53;;;;;;;5.03;4.53;;;;;;;;;;5395650;26;20020;-47
2024/04/18 10:14:20;;;;;;;7.63;4.70;;;;;;;;;;5395862;26;20008;-47
2024/04/18 10:16:50;;;;;;;5.97;4.05;;;;;;;;;;5395541;26;19988;-43
2024/04/18 10:19:21;;;;;;;6.00;4.55;;;;;;;;;;5395736;26;20244;-45
2024/04/18 10:21:57;;;;;;;4.88;4.45;;;;;;;;;;5395616;26;20209;-41
2024/04/18 10:24:33;;;;;;;5.93;4.32;;;;;;;;;;5395535;26;20013;-46
2024/04/18 10:27:11;;;;;;;6.70;4.43;;;;;;;;;;5395566;26;20096;-49
2024/04/18 10:29:38;;;;;;;5.53;4.30;;;;;;;;;;5395558;26;20201;-45
2024/04/18 10:32:05;;;;;;;5.18;4.20;;;;;;;;;;5395520;26;20167;-46
2024/04/18 10:34:31;;;;;;;5.05;3.85;;;;;;;;;;5395505;26;19984;-46
2024/04/18 10:37:05;;;;;;;4.43;4.03;;;;;;;;;;5395054;26;20003;-49
2024/04/18 10:39:35;;;;;;;4.18;3.78;;;;;;;;;;5366234;26;19992;-50
2024/04/18 10:42:02;;;;;;;5.07;4.15;;;;;;;;;;5395298;26;19988;-44
2024/04/18 10:44:29;;;;;;;6.45;4.13;;;;;;;;;;5395212;26;19999;-43
2024/04/18 10:46:55;;;;;;;5.72;3.60;;;;;;;;;;5395427;26;20085;-50
2024/04/18 10:49:22;;;;;;;5.10;3.88;;;;;;;;;;5395250;26;19998;-46
2024/04/18 10:51:50;;;;;;;8.10;4.10;;;;;;;;;;5395340;26;19991;-44
2024/04/18 10:54:17;;;;;;;6.60;3.90;;;;;;;;;;5394913;26;19999;-41
2024/04/18 10:56:44;;;;;;;8.93;4.15;;;;;;;;;;5394762;26;19988;-43
2024/04/18 10:59:11;;;;;;;6.50;4.20;;;;;;;;;;5395052;26;19992;-45
2024/04/18 11:01:38;;;;;;;7.70;4.15;;;;;;;;;;5395230;26;20000;-45
2024/04/18 11:04:05;;;;;;;7.68;4.18;;;;;;;;;;5404790;26;20207;-46
2024/04/18 11:06:32;;;;;;;12.32;4.30;;;;;;;;;;5461952;26;20079;-48
2024/04/18 11:09:01;;;;;;;6.22;4.00;;;;;;;;;;5466635;26;19998;-47
2024/04/18 11:11:31;;;;;;;5.32;3.60;;;;;;;;;;5466296;26;20179;-51
2024/04/18 11:13:59;;;;;;;5.60;3.75;;;;;;;;;;5465191;26;20043;-44
2024/04/18 11:16:25;;;;;;;4.35;3.35;;;;;;;;;;5466363;26;20036;-46
2024/04/18 11:18:55;;;;;;;4.93;3.90;;;;;;;;;;5466131;26;19989;-47
2024/04/18 11:21:22;;;;;;;5.20;3.33;;;;;;;;;;5466230;26;19983;-43
2024/04/18 11:23:52;;;;;;;5.72;3.67;;;;;;;;;;5466356;26;20113;-43
2024/04/18 11:26:22;;;;;;;3.97;3.20;;;;;;;;;;5466151;26;20043;-41
2024/04/18 11:28:53;;;;;;;5.72;3.45;;;;;;;;;;5466164;26;19983;-46
2024/04/18 11:31:19;;;;;;;5.78;3.28;;;;;;;;;;5465951;26;20088;-48
2024/04/18 11:33:46;;;;;;;3.33;2.75;;;;;;;;;;5466195;26;20096;-44
2024/04/18 11:36:14;;;;;;;5.00;3.97;;;;;;;;;;5466053;26;19989;-43
2024/04/18 11:38:41;;;;;;;5.45;3.55;;;;;;;;;;5465853;26;19991;-47
2024/04/18 11:41:07;;;;;;;5.88;3.58;;;;;;;;;;5465905;26;20035;-44
2024/04/18 11:43:34;;;;;;;5.32;3.35;;;;;;;;;;5466129;26;19987;-47
2024/04/18 11:46:00;;;;;;;77.57;6.85;;;;;;;;;;5465569;26;20040;-47
2024/04/18 11:48:27;;;;;;;34.92;5.03;;;;;;;;;;5465664;26;19998;-49
2024/04/18 11:50:53;;;;;;;45.65;6.55;;;;;;;;;;5465794;26;19998;-56
2024/04/18 11:53:20;;;;;;;11.00;3.50;;;;;;;;;;5465762;26;19998;-53
2024/04/18 11:55:47;;;;;;;15.32;3.30;;;;;;;;;;5465758;26;19987;-45
2024/04/18 11:58:13;;;;;;;11.05;3.15;;;;;;;;;;5465518;26;20001;-40
2024/04/18 12:12:24;;;;;;;5.28;2.17;;;;;;;;;;5635358;25;20374;-44
2024/04/18 12:14:50;;;;;;;3.97;2.65;;;;;;;;;;5635097;25;19984;-46
2024/04/18 12:38:19;;;;;;;4.55;3.60;;;;;;;;;;5635230;25;20362;-42
2024/04/18 12:40:46;;;;;;;19.58;17.85;;;;;;;;;;5597115;25;19992;-40
2024/04/18 12:43:13;;;;;;;9.65;8.48;;;;;;;;;;5597039;25;19984;-45
2024/04/18 12:45:39;;;;;;;8.20;7.40;;;;;;;;;;5596878;25;20085;-43
2024/04/18 12:48:06;;;;;;;5.65;5.15;;;;;;;;;;5596901;25;20029;-41
2024/04/18 12:50:33;;;;;;;6.43;4.40;;;;;;;;;;5596780;25;19981;-41
2024/04/18 12:52:59;;;;;;;4.45;3.60;;;;;;;;;;5596410;25;20137;-42
2024/04/18 12:55:27;;;;;;;3.67;3.00;;;;;;;;;;5588649;25;20109;-46
2024/04/18 12:57:54;;;;;;;4.90;2.88;;;;;;;;;;5596619;25;19998;-40
2024/04/18 13:00:21;;;;;;;2.28;1.95;;;;;;;;;;5593412;25;19988;-47
2024/04/18 13:02:47;;;;;;;2.72;1.80;;;;;;;;;;5588244;25;20018;-44
2024/04/18 13:05:14;;;;;;;2.70;2.15;;;;;;;;;;5596769;25;19988;-41
2024/04/18 13:07:41;;;;;;;3.25;2.13;;;;;;;;;;5596638;25;20192;-44
2024/04/18 13:10:08;;;;;;;4.93;2.13;;;;;;;;;;5582961;25;20145;-50
2024/04/18 13:12:34;;;;;;;2.80;1.90;;;;;;;;;;5586513;25;19985;-40
2024/04/18 13:15:01;;;;;;;2.08;1.77;;;;;;;;;;5590508;25;19996;-40
2024/04/18 13:17:28;;;;;;;2.85;2.38;;;;;;;;;;5587293;25;20097;-39
2024/04/18 13:19:54;;;;;;;2.90;2.60;;;;;;;;;;5574986;25;20012;-40
2024/04/18 13:22:21;;;;;;;5.18;2.30;;;;;;;;;;5578433;25;19992;-39
2024/04/18 13:24:47;;;;;;;2.80;2.50;;;;;;;;;;5577194;25;19990;-40
2024/04/18 13:27:14;;;;;;;2.97;2.35;;;;;;;;;;5582950;25;20014;-37
2024/04/18 13:29:40;;;;;;;3.00;2.70;;;;;;;;;;5551102;25;19993;-40
2024/04/18 13:32:07;;;;;;;2.47;2.28;;;;;;;;;;5573075;25;19993;-44
2024/04/18 13:34:34;;;;;;;3.08;2.78;;;;;;;;;;5569509;25;20206;-45
2024/04/18 13:37:00;;;;;;;3.13;2.90;;;;;;;;;;5595016;25;20074;-43
2024/04/18 13:39:28;;;;;;;4.30;3.90;;;;;;;;;;5554101;25;20102;-51
2024/04/18 13:41:55;;;;;;;6.07;4.10;;;;;;;;;;5515719;26;19998;-51
2024/04/18 13:44:22;;;;;;;5.28;3.90;;;;;;;;;;5507997;26;20004;-48
2024/04/18 13:46:48;;;;;;;4.68;3.95;;;;;;;;;;5505075;26;20234;-47
2024/04/18 13:49:15;;;;;;;4.50;4.10;;;;;;;;;;5505358;26;19978;-54
2024/04/18 13:51:41;;;;;;;5.40;4.63;;;;;;;;;;5505360;26;19997;-48
2024/04/18 13:54:08;;;;;;;12.35;6.15;;;;;;;;;;5504083;26;20032;-47
2024/04/18 13:56:35;;;;;;;6.75;6.05;;;;;;;;;;5471532;26;19990;-45
2024/04/18 13:59:01;;;;;;;7.63;6.93;;;;;;;;;;5502600;26;19996;-43
2024/04/18 14:01:28;;;;;;;9.43;7.35;;;;;;;;;;5502245;26;19991;-43
2024/04/18 14:03:54;;;;;;;7.70;6.53;;;;;;;;;;5502348;26;20005;-43
2024/04/18 14:06:21;;;;;;;8.00;7.20;;;;;;;;;;5502361;26;19997;-41
2024/04/18 14:08:47;;;;;;;8.02;6.88;;;;;;;;;;5502168;26;19994;-41
2024/04/18 14:11:14;;;;;;;10.68;7.40;;;;;;;;;;5505063;26;20051;-43
2024/04/18 14:13:40;;;;;;;7.68;6.72;;;;;;;;;;5504945;26;19986;-48
2024/04/18 14:18:53;;;;;;;7.85;7.05;;;;;;;;;;5505447;26;20104;-53
2024/04/18 14:21:20;;;;;;;88.80;79.68;;;;;;;;;;5504587;26;20014;-52
2024/04/18 14:23:47;;;;;;;42.47;37.88;;;;;;;;;;5504560;26;20001;-51
2024/04/18 14:26:14;;;;;;;23.88;21.40;;;;;;;;;;5504221;26;20001;-51
2024/04/18 14:28:40;;;;;;;20.10;14.98;;;;;;;;;;5504580;26;19986;-50
2024/04/18 14:31:07;;;;;;;14.77;12.63;;;;;;;;;;5504772;26;20006;-48
2024/04/18 14:33:34;;;;;;;11.68;10.48;;;;;;;;;;5504842;26;19992;-48
2024/04/18 14:36:00;;;;;;;9.77;8.77;;;;;;;;;;5504671;26;19994;-50
2024/04/18 14:38:28;;;;;;;9.88;7.50;;;;;;;;;;5504575;26;20001;-46
2024/04/18 14:40:55;;;;;;;8.20;7.40;;;;;;;;;;5504659;26;20000;-48
2024/04/18 14:43:23;;;;;;;8.85;7.07;;;;;;;;;;5504581;26;20042;-51
2024/04/18 14:45:50;;;;;;;9.07;6.03;;;;;;;;;;5504265;26;19994;-52
2024/04/18 14:48:17;;;;;;;8.00;5.88;;;;;;;;;;5504712;26;19982;-51
2024/04/18 14:50:50;;;;;;;6.68;5.75;;;;;;;;;;5503408;26;20047;-50
2024/04/18 14:53:16;;;;;;;6.15;5.00;;;;;;;;;;5504472;26;20015;-50
2024/04/18 14:55:43;;;;;;;8.60;5.40;;;;;;;;;;5504420;26;20001;-51
2024/04/18 14:58:09;;;;;;;5.53;4.85;;;;;;;;;;5504329;26;19986;-50
2024/04/18 15:00:37;;;;;;;18.52;6.60;;;;;;;;;;5504144;26;19993;-47
2024/04/18 15:03:04;;;;;;;16.33;5.65;;;;;;;;;;5504302;26;20191;-47
2024/04/18 15:05:30;;;;;;;39.45;8.45;;;;;;;;;;5504046;26;19990;-46
2024/04/18 15:07:58;;;;;;;16.40;5.53;;;;;;;;;;5504373;26;20002;-49